x

Molasses Reef, Fl (mlrf1) Weather Station

9:00am - Wed 22nd Nov 2017 All times are EST. -5 hours from GMT.

  • Wind
    6mph, 6mph gusts
  • Sea Temp 78°f
  • Air Temp 76°f
  • Sea Pressure 1014.5mb
  • Molasses Reef, Fl
  • Molasses Reef, Fl

More Historic Weather Station data

Upgrade to MSW Pro to gain access to the past 30 days of data for over 8000 Wavebouys and Weather Stations around the globe.

Join

Comparision Forecast

View Surf forecast
   
Wed 11/22 9:00am 6 6 mph 1014.5mb 78f 76f
8:00am 7 7 mph 1014.1mb 78f 76f
7:00am 7 7 mph 1013.7mb 78f 75f
6:00am 6 7 mph 1012.9mb 79f 75f
5:00am 6 6 mph 1013mb 79f 76f
4:00am  -  1 mph 1012.8mb 79f 78f
3:00am  -  1 mph 1012.7mb 80f 78f
12:00am 3 5 mph 1013.9mb 80f 78f
Tue 11/21 11:00pm 2 2 mph 1014.2mb 80f 79f
10:00pm 1 6 mph 1014.1mb 80f 78f
9:00pm 3 6 mph 1013.6mb 80f 78f
8:00pm 7 10 mph 1013.6mb 80f 78f
7:00pm 2 5 mph 1013.4mb 80f 79f
6:00pm 1 5 mph 1013.3mb 80f 79f
5:00pm 6 7 mph 1013.4mb 80f 79f
4:00pm 8 9 mph 1013.2mb 80f 79f
3:00pm 7 7 mph 1013.2mb 80f 79f
2:00pm 5 6 mph 1013.6mb 80f 79f
1:00pm 7 8 mph 1014.3mb 80f 79f
12:00pm 6 8 mph 1015.2mb 80f 79f
11:00am 8 9 mph 1016mb 80f 79f
10:00am 8 9 mph 1016.3mb 80f 79f
9:00am 9 10 mph 1016mb 80f 79f
8:00am 9 10 mph 1015.5mb 80f 79f
7:00am 13 15 mph 1015.1mb 80f 78f
6:00am 14 15 mph 1014.5mb 80f 77f
5:00am 16 18 mph 1014mb 80f 77f
4:00am 14 16 mph 1013.9mb 79f 77f
3:00am 16 20 mph 1014.3mb 79f 77f
2:00am 16 20 mph 1015mb 79f 77f
1:00am 17 20 mph 1015.4mb 79f 78f
12:00am 16 18 mph 1015.6mb 79f 77f
Mon 11/20 11:00pm 21 24 mph 1016.3mb 79f 77f
10:00pm 21 23 mph 1016.6mb 78f 78f
9:00pm 22 23 mph 1016.4mb 78f 78f
8:00pm 22 24 mph 1016.4mb 78f 78f
7:00pm 21 24 mph 1016.1mb 78f 77f
6:00pm 24 25 mph 1015.8mb 78f 77f
5:00pm 22 25 mph 1015.6mb 78f 74f
4:00pm 18 23 mph 1015.8mb 78f 73f
3:00pm 24 25 mph 1015.4mb 78f 76f
2:00pm 24 26 mph 1015.6mb 78f 76f
1:00pm 25 28 mph 1016mb 79f 76f
12:00pm 26 29 mph 1016.6mb 80f 76f
11:00am 25 28 mph 1017.1mb 80f 77f
10:00am 20 22 mph 1017.5mb 80f 71f
9:00am 17 20 mph 1017.2mb 80f 73f
8:00am 16 18 mph 1016.9mb 80f 72f
7:00am 17 17 mph 1016.4mb 80f 71f
6:00am 15 17 mph 1016.1mb 80f 72f
5:00am 16 17 mph 1015.5mb 80f 72f
4:00am 11 15 mph 1015.3mb 80f 73f
3:00am 10 11 mph 1015.1mb 80f 73f
2:00am 13 15 mph 1015.1mb 80f 73f
1:00am 10 11 mph 1015.3mb 80f 73f
12:00am 11 13 mph 1015.4mb 80f 73f
Sun 11/19 11:00pm 10 11 mph 1015.6mb 80f 74f
10:00pm 13 15 mph 1015.3mb 80f 74f
9:00pm 13 14 mph 1015mb 80f 74f
8:00pm 10 13 mph 1014.5mb 80f 75f
7:00pm 11 13 mph 1014mb 80f 76f
6:00pm 5 6 mph 1013.3mb 80f 75f
5:00pm 8 9 mph 1013mb 80f 76f
4:00pm 8 9 mph 1012.8mb 79f 76f
3:00pm 3 5 mph 1012.8mb 79f 77f
2:00pm 3 5 mph 1012.9mb 78f 77f
1:00pm 5 5 mph 1013.9mb 78f 78f
12:00pm 3 3 mph 1014.9mb 79f 76f
10:00am 14 15 mph 1016.1mb 80f 74f
9:00am 14 16 mph 1015.8mb 80f 74f
8:00am 14 16 mph 1015.2mb 80f 73f
7:00am 11 14 mph 1014.8mb 79f 72f
6:00am 11 14 mph 1014.4mb 79f 72f
5:00am 13 13 mph 1014.1mb 79f 72f
4:00am 11 13 mph 1013.9mb 79f 73f
3:00am 8 9 mph 1014mb 79f 73f
2:00am  -  1 mph 1014.1mb 79f 76f
1:00am  -  2 mph 1014.4mb 79f 76f
12:00am 2 3 mph 1014.8mb 79f 77f
Sat 11/18 11:00pm 3 5 mph 1015.1mb 80f 77f
9:00pm  -  2 mph 1015.2mb 80f 77f
8:00pm  -  1 mph 1014.7mb 80f 77f
7:00pm  -  2 mph 1014.2mb 80f 77f
6:00pm 3 7 mph 1013.6mb 80f 78f
5:00pm 8 10 mph 1013.5mb 80f 78f